createdAt,value
2022-11-12T00:00:01.621Z,4.85
2022-11-12T00:02:48.014Z,4.92
2022-11-12T00:05:34.564Z,4.90
2022-11-12T00:08:21.740Z,4.84
2022-11-12T00:11:07.755Z,4.79
2022-11-12T00:13:54.101Z,4.80
2022-11-12T00:16:40.537Z,4.74
2022-11-12T00:19:26.878Z,4.69
2022-11-12T00:22:13.670Z,4.67
2022-11-12T00:25:00.010Z,4.64
2022-11-12T00:27:46.456Z,4.70
2022-11-12T00:30:34.249Z,4.70
2022-11-12T00:33:20.542Z,4.66
2022-11-12T00:36:07.260Z,4.63
2022-11-12T00:38:53.917Z,4.59
2022-11-12T00:41:40.460Z,4.56
2022-11-12T00:44:29.530Z,4.49
2022-11-12T00:47:16.373Z,4.57
2022-11-12T00:50:03.178Z,4.50
2022-11-12T00:52:51.428Z,4.44
2022-11-12T00:55:37.686Z,4.41
2022-11-12T00:58:24.544Z,4.31
2022-11-12T01:01:16.593Z,4.29
2022-11-12T01:04:03.697Z,4.31
2022-11-12T01:06:50.234Z,4.36
2022-11-12T01:09:36.665Z,4.36
2022-11-12T01:12:23.487Z,4.34
2022-11-12T01:15:10.062Z,4.32
2022-11-12T01:17:56.390Z,4.35
2022-11-12T01:20:42.808Z,4.28
2022-11-12T01:23:29.511Z,4.28
2022-11-12T01:26:18.583Z,4.32
2022-11-12T01:29:05.678Z,4.31
2022-11-12T01:31:52.098Z,4.31
2022-11-12T01:34:38.435Z,4.24
2022-11-12T01:37:24.885Z,4.24
2022-11-12T01:40:11.983Z,4.17
2022-11-12T01:42:58.599Z,4.21
2022-11-12T01:45:49.921Z,4.17
2022-11-12T01:48:44.252Z,4.15
2022-11-12T01:51:41.935Z,4.19
2022-11-12T01:54:29.277Z,4.22
2022-11-12T01:57:20.568Z,4.12
2022-11-12T02:00:11.244Z,4.14
2022-11-12T02:03:00.621Z,4.14
2022-11-12T02:05:51.604Z,4.08
2022-11-12T02:08:41.060Z,4.08
2022-11-12T02:11:27.621Z,4.04
2022-11-12T02:14:14.388Z,4.05
2022-11-12T02:17:00.990Z,4.00
2022-11-12T02:19:47.548Z,3.97
2022-11-12T02:22:33.879Z,3.94
2022-11-12T02:25:23.539Z,3.93
2022-11-12T02:28:10.142Z,3.94
2022-11-12T02:30:56.462Z,3.94
2022-11-12T02:33:43.012Z,3.87
2022-11-12T02:36:30.063Z,3.87
2022-11-12T02:39:16.545Z,3.86
2022-11-12T02:42:03.406Z,3.89
2022-11-12T02:44:49.706Z,3.83
2022-11-12T02:47:36.032Z,3.72
2022-11-12T02:50:22.766Z,3.63
2022-11-12T02:53:09.168Z,3.55
2022-11-12T02:55:55.538Z,3.43
2022-11-12T02:58:41.927Z,3.38
2022-11-12T03:01:28.468Z,3.32
2022-11-12T03:04:14.763Z,3.34
2022-11-12T03:07:01.472Z,3.35
2022-11-12T03:09:47.692Z,3.36
2022-11-12T03:12:34.285Z,3.40
2022-11-12T03:15:21.339Z,3.40
2022-11-12T03:18:07.587Z,3.36
2022-11-12T03:20:53.998Z,3.34
2022-11-12T03:23:40.418Z,3.28
2022-11-12T03:26:29.542Z,3.24
2022-11-12T03:29:19.494Z,3.21
2022-11-12T03:32:05.922Z,3.22
2022-11-12T03:34:55.466Z,3.22
2022-11-12T03:37:42.127Z,3.22
2022-11-12T03:40:29.862Z,3.21
2022-11-12T03:43:16.207Z,3.17
2022-11-12T03:46:02.921Z,3.21
2022-11-12T03:48:49.509Z,3.21
2022-11-12T03:51:36.034Z,3.19
2022-11-12T03:54:22.541Z,3.17
2022-11-12T03:57:08.941Z,3.25
2022-11-12T03:59:55.402Z,3.18
2022-11-12T04:02:41.893Z,3.12
2022-11-12T04:05:47.438Z,3.09
2022-11-12T04:08:36.579Z,3.05
2022-11-12T04:11:23.067Z,3.04
2022-11-12T04:14:09.340Z,2.98
2022-11-12T04:17:14.412Z,3.03
2022-11-12T04:20:19.294Z,3.05
2022-11-12T04:23:05.695Z,3.09
2022-11-12T04:26:10.635Z,3.14
2022-11-12T04:29:15.533Z,3.09
2022-11-12T04:32:01.870Z,3.05
2022-11-12T04:34:48.688Z,3.05
2022-11-12T04:37:45.379Z,3.08
2022-11-12T04:40:50.564Z,3.04
2022-11-12T04:43:55.523Z,2.98
2022-11-12T04:46:42.203Z,2.94
2022-11-12T04:49:28.834Z,2.94
2022-11-12T04:52:15.558Z,2.96
2022-11-12T04:55:02.208Z,2.98
2022-11-12T04:57:48.651Z,2.96
2022-11-12T05:00:35.571Z,3.03
2022-11-12T05:03:22.145Z,3.05
2022-11-12T05:06:28.437Z,3.14
2022-11-12T05:09:14.550Z,3.18
2022-11-12T05:12:01.011Z,3.22
2022-11-12T05:14:49.856Z,3.21
2022-11-12T05:17:36.244Z,3.18
2022-11-12T05:20:22.822Z,3.18
2022-11-12T05:23:11.256Z,3.14
2022-11-12T05:25:57.674Z,3.12
2022-11-12T05:28:44.314Z,3.19
2022-11-12T05:31:31.227Z,3.05
2022-11-12T05:34:22.609Z,3.01
2022-11-12T05:37:11.338Z,2.93
2022-11-12T05:39:57.499Z,2.90
2022-11-12T05:42:45.383Z,2.86
2022-11-12T05:45:31.780Z,2.81
2022-11-12T05:48:23.121Z,2.79
2022-11-12T05:51:14.159Z,2.81
2022-11-12T05:54:01.435Z,2.84
2022-11-12T05:56:48.006Z,3.12
2022-11-12T05:59:37.373Z,3.09
2022-11-12T06:02:25.868Z,3.05
2022-11-12T06:05:12.544Z,3.03
2022-11-12T06:07:59.491Z,2.94
2022-11-12T06:10:50.335Z,2.89
2022-11-12T06:13:36.634Z,2.81
2022-11-12T06:16:23.257Z,2.76
2022-11-12T06:19:09.672Z,2.67
2022-11-12T06:21:57.366Z,2.69
2022-11-12T06:24:44.340Z,2.66
2022-11-12T06:27:30.992Z,2.62
2022-11-12T06:30:21.664Z,2.55
2022-11-12T06:33:10.651Z,2.57
2022-11-12T06:36:06.909Z,2.55
2022-11-12T06:38:53.221Z,2.50
2022-11-12T06:41:40.200Z,2.52
2022-11-12T06:44:26.441Z,2.52
2022-11-12T06:47:12.840Z,2.50
2022-11-12T06:49:59.790Z,2.50
2022-11-12T06:52:46.151Z,2.53
2022-11-12T06:55:32.549Z,2.53
2022-11-12T06:58:19.450Z,2.49
2022-11-12T07:01:12.325Z,2.56
2022-11-12T07:03:59.165Z,2.66
2022-11-12T07:06:45.421Z,2.64
2022-11-12T07:09:31.849Z,2.67
2022-11-12T07:12:18.457Z,2.67
2022-11-12T07:15:05.497Z,2.67
2022-11-12T07:17:51.644Z,2.73
2022-11-12T07:20:38.470Z,2.77
2022-11-12T07:23:24.651Z,2.79
2022-11-12T07:26:18.811Z,2.80
2022-11-12T07:29:07.428Z,2.83
2022-11-12T07:31:53.973Z,2.87
2022-11-12T07:34:40.644Z,2.93
2022-11-12T07:37:27.196Z,3.03
2022-11-12T07:40:13.936Z,3.08
2022-11-12T07:43:00.142Z,3.19
2022-11-12T07:45:46.406Z,3.32
2022-11-12T07:48:33.526Z,3.42
2022-11-12T07:51:23.601Z,3.45
2022-11-12T07:54:10.119Z,3.51
2022-11-12T07:56:56.431Z,3.56
2022-11-12T07:59:46.069Z,3.60
2022-11-12T08:02:32.927Z,3.66
2022-11-12T08:05:21.564Z,3.70
2022-11-12T08:08:08.375Z,3.77
2022-11-12T08:10:56.806Z,3.83
2022-11-12T08:13:43.164Z,3.94
2022-11-12T08:16:29.889Z,4.04
2022-11-12T08:19:16.443Z,4.15
2022-11-12T08:22:03.060Z,4.24
2022-11-12T08:24:49.332Z,4.31
2022-11-12T08:27:36.230Z,4.44
2022-11-12T08:30:22.654Z,4.57
2022-11-12T08:33:09.666Z,4.67
2022-11-12T08:35:56.279Z,4.79
2022-11-12T08:38:43.784Z,4.94
2022-11-12T08:41:29.818Z,5.05
2022-11-12T08:44:16.073Z,5.22
2022-11-12T08:47:02.773Z,5.36
2022-11-12T08:49:49.006Z,5.52
2022-11-12T08:52:35.467Z,5.66
2022-11-12T08:55:21.984Z,5.81
2022-11-12T08:58:10.404Z,5.98
2022-11-12T09:00:57.422Z,6.08
2022-11-12T09:03:44.081Z,6.22
2022-11-12T09:06:30.731Z,6.33
2022-11-12T09:09:17.286Z,6.45
2022-11-12T09:12:12.427Z,6.52
2022-11-12T09:15:31.179Z,6.64
2022-11-12T09:18:16.505Z,6.76
2022-11-12T09:21:12.934Z,6.88
2022-11-12T09:23:59.467Z,6.95
2022-11-12T09:26:46.427Z,7.05
2022-11-12T09:29:33.502Z,7.18
2022-11-12T09:32:20.704Z,7.33
2022-11-12T09:35:08.638Z,7.33
2022-11-12T09:37:55.149Z,7.46
2022-11-12T09:40:56.661Z,7.62
2022-11-12T09:43:45.278Z,7.71
2022-11-12T09:46:40.216Z,7.83
2022-11-12T09:49:36.376Z,7.88
2022-11-12T09:52:30.186Z,7.95
2022-11-12T09:55:30.906Z,8.09
2022-11-12T09:58:19.339Z,8.21
2022-11-12T10:01:17.338Z,8.26
2022-11-12T10:04:25.435Z,8.29
2022-11-12T10:07:38.984Z,8.40
2022-11-12T10:10:49.502Z,8.54
2022-11-12T10:14:10.553Z,8.70
2022-11-12T10:17:16.275Z,8.84
2022-11-12T10:20:16.128Z,8.98
2022-11-12T10:23:41.099Z,9.10
2022-11-12T10:26:28.591Z,9.29
2022-11-12T10:29:37.826Z,9.43
2022-11-12T10:32:23.936Z,9.51
2022-11-12T10:35:21.536Z,9.64
2022-11-12T10:38:14.604Z,9.75
2022-11-12T10:41:30.791Z,9.85
2022-11-12T10:44:27.691Z,9.95
2022-11-12T10:47:25.561Z,10.09
2022-11-12T10:50:21.440Z,10.18
2022-11-12T10:53:11.646Z,10.26
2022-11-12T10:56:00.388Z,10.42
2022-11-12T10:59:06.935Z,10.52
2022-11-12T11:01:58.904Z,10.60
2022-11-12T11:04:46.370Z,10.64
2022-11-12T11:07:32.821Z,10.73
2022-11-12T11:10:34.659Z,10.78
2022-11-12T11:13:26.435Z,10.87
2022-11-12T11:16:17.798Z,10.98
2022-11-12T11:19:06.347Z,11.12
2022-11-12T11:22:07.996Z,11.21
2022-11-12T11:25:23.057Z,11.29
2022-11-12T11:28:31.362Z,11.42
2022-11-12T11:31:50.415Z,11.44
2022-11-12T11:35:05.155Z,11.59
2022-11-12T11:38:31.590Z,11.64
2022-11-12T11:41:30.371Z,11.76
2022-11-12T11:44:44.478Z,11.84
2022-11-12T11:48:00.647Z,11.90
2022-11-12T11:51:01.457Z,11.98
2022-11-12T11:54:02.995Z,12.04
2022-11-12T11:56:52.214Z,12.11
2022-11-12T12:00:19.461Z,12.19
2022-11-12T12:03:13.203Z,12.29
2022-11-12T12:06:12.336Z,12.35
2022-11-12T12:09:14.247Z,12.42
2022-11-12T12:12:49.881Z,12.56
2022-11-12T12:15:58.318Z,12.70
2022-11-12T12:18:57.455Z,12.76
2022-11-12T12:21:48.681Z,12.83
2022-11-12T12:24:50.148Z,12.95
2022-11-12T12:27:41.047Z,13.02
2022-11-12T12:30:29.704Z,13.10
2022-11-12T12:33:37.538Z,13.19
2022-11-12T12:36:39.872Z,13.28
2022-11-12T12:39:36.031Z,13.32
2022-11-12T12:42:44.453Z,13.38
2022-11-12T12:45:41.623Z,13.49
2022-11-12T12:48:32.865Z,13.39
2022-11-12T12:51:20.131Z,13.45
2022-11-12T12:54:35.809Z,13.53
2022-11-12T12:57:42.524Z,13.57
2022-11-12T13:00:34.219Z,13.56
2022-11-12T13:03:48.967Z,13.63
2022-11-12T13:06:47.945Z,13.67
2022-11-12T13:09:34.848Z,13.70
2022-11-12T13:12:40.941Z,13.71
2022-11-12T13:15:44.446Z,13.70
2022-11-12T13:18:40.699Z,13.73
2022-11-12T13:21:28.198Z,13.76
2022-11-12T13:24:15.015Z,13.76
2022-11-12T13:27:01.953Z,13.77
2022-11-12T13:29:48.860Z,13.80
2022-11-12T13:32:36.778Z,13.78
2022-11-12T13:35:32.432Z,13.81
2022-11-12T13:38:20.056Z,13.81
2022-11-12T13:41:17.544Z,13.87
2022-11-12T13:44:07.952Z,13.91
2022-11-12T13:46:55.954Z,13.85
2022-11-12T13:49:45.826Z,13.83
2022-11-12T13:52:33.889Z,13.83
2022-11-12T13:55:22.837Z,13.81
2022-11-12T13:58:26.835Z,13.83
2022-11-12T14:01:14.089Z,13.83
2022-11-12T14:04:01.888Z,13.87
2022-11-12T14:06:56.187Z,13.85
2022-11-12T14:09:55.373Z,13.83
2022-11-12T14:13:20.869Z,13.91
2022-11-12T14:16:39.560Z,13.90
2022-11-12T14:19:32.826Z,13.90
2022-11-12T14:22:21.675Z,13.85
2022-11-12T14:25:33.626Z,13.83
2022-11-12T14:28:35.431Z,13.78
2022-11-12T14:31:25.834Z,13.71
2022-11-12T14:34:42.088Z,13.66
2022-11-12T14:37:43.285Z,13.60
2022-11-12T14:40:32.832Z,13.59
2022-11-12T14:43:31.944Z,13.55
2022-11-12T14:46:39.245Z,13.52
2022-11-12T14:49:44.810Z,13.47
2022-11-12T14:52:41.257Z,13.36
2022-11-12T14:55:29.646Z,13.29
2022-11-12T14:58:17.827Z,13.21
2022-11-12T15:02:08.931Z,13.12
2022-11-12T15:04:43.441Z,13.10
2022-11-12T15:07:35.807Z,13.07
2022-11-12T15:10:36.893Z,13.02
2022-11-12T15:13:25.799Z,12.93
2022-11-12T15:16:19.398Z,12.81
2022-11-12T15:19:15.443Z,12.72
2022-11-12T15:22:03.724Z,12.68
2022-11-12T15:24:50.493Z,12.60
2022-11-12T15:27:43.896Z,12.53
2022-11-12T15:30:33.446Z,12.49
2022-11-12T15:33:22.936Z,12.39
2022-11-12T15:36:21.928Z,12.24
2022-11-12T15:39:13.966Z,12.11
2022-11-12T15:42:13.202Z,11.97
2022-11-12T15:45:02.432Z,11.90
2022-11-12T15:47:49.154Z,11.77
2022-11-12T15:50:35.684Z,11.62
2022-11-12T15:53:22.239Z,11.47
2022-11-12T15:56:21.564Z,11.32
2022-11-12T15:59:13.956Z,11.16
2022-11-12T16:02:00.209Z,11.02
2022-11-12T16:04:46.753Z,10.88
2022-11-12T16:07:33.390Z,10.80
2022-11-12T16:10:20.366Z,10.66
2022-11-12T16:13:11.716Z,10.49
2022-11-12T16:15:58.790Z,10.39
2022-11-12T16:18:44.863Z,10.33
2022-11-12T16:21:31.491Z,10.25
2022-11-12T16:24:18.034Z,10.16
2022-11-12T16:27:07.624Z,10.06
2022-11-12T16:29:53.772Z,9.95
2022-11-12T16:32:40.269Z,9.88
2022-11-12T16:35:27.902Z,9.81
2022-11-12T16:38:16.644Z,9.73
2022-11-12T16:41:03.472Z,9.66
2022-11-12T16:43:52.022Z,9.63
2022-11-12T16:46:43.827Z,9.51
2022-11-12T16:49:33.300Z,9.44
2022-11-12T16:52:23.920Z,9.44
2022-11-12T16:55:10.984Z,9.40
2022-11-12T16:57:57.469Z,9.32
2022-11-12T17:00:47.185Z,9.21
2022-11-12T17:03:33.740Z,9.11
2022-11-12T17:06:20.879Z,9.08
2022-11-12T17:09:10.216Z,9.07
2022-11-12T17:11:56.581Z,9.02
2022-11-12T17:14:42.874Z,9.01
2022-11-12T17:17:29.539Z,8.88
2022-11-12T17:20:16.474Z,8.73
2022-11-12T17:23:02.838Z,8.70
2022-11-12T17:25:59.196Z,8.63
2022-11-12T17:28:46.167Z,8.66
2022-11-12T17:31:32.752Z,8.61
2022-11-12T17:34:19.348Z,8.64
2022-11-12T17:37:05.520Z,8.52
2022-11-12T17:39:52.275Z,8.42
2022-11-12T17:42:38.891Z,8.28
2022-11-12T17:45:25.322Z,8.25
2022-11-12T17:48:11.932Z,8.18
2022-11-12T17:51:11.603Z,8.15
2022-11-12T17:53:58.366Z,8.08
2022-11-12T17:56:44.771Z,8.04
2022-11-12T17:59:31.271Z,7.98
2022-11-12T18:02:18.039Z,7.94
2022-11-12T18:05:04.897Z,7.85
2022-11-12T18:07:51.901Z,7.87
2022-11-12T18:10:38.788Z,7.85
2022-11-12T18:13:30.219Z,7.81
2022-11-12T18:16:20.834Z,7.80
2022-11-12T18:19:10.777Z,7.71
2022-11-12T18:21:57.325Z,7.67
2022-11-12T18:24:44.598Z,7.64
2022-11-12T18:27:31.026Z,7.64
2022-11-12T18:30:19.510Z,7.66
2022-11-12T18:33:06.844Z,7.63
2022-11-12T18:36:06.868Z,7.56
2022-11-12T18:38:54.817Z,7.52
2022-11-12T18:41:41.610Z,7.46
2022-11-12T18:44:28.737Z,7.40
2022-11-12T18:47:15.339Z,7.35
2022-11-12T18:50:05.625Z,7.32
2022-11-12T18:52:54.978Z,7.30
2022-11-12T18:55:41.828Z,7.29
2022-11-12T18:58:34.661Z,7.29
2022-11-12T19:01:24.255Z,7.25
2022-11-12T19:04:11.839Z,7.21
2022-11-12T19:06:58.138Z,7.16
2022-11-12T19:09:44.985Z,7.18
2022-11-12T19:12:31.777Z,7.21
2022-11-12T19:15:22.740Z,7.18
2022-11-12T19:18:12.559Z,7.16
2022-11-12T19:21:04.801Z,7.11
2022-11-12T19:23:54.615Z,7.08
2022-11-12T19:26:41.794Z,7.05
2022-11-12T19:29:28.733Z,6.97
2022-11-12T19:32:15.215Z,6.95
2022-11-12T19:35:01.526Z,6.95
2022-11-12T19:37:48.869Z,6.91
2022-11-12T19:40:35.443Z,6.91
2022-11-12T19:43:22.362Z,6.95
2022-11-12T19:46:10.500Z,6.94
2022-11-12T19:48:57.344Z,6.94
2022-11-12T19:51:44.289Z,6.95
2022-11-12T19:54:30.895Z,6.91
2022-11-12T19:57:17.874Z,6.83
2022-11-12T20:00:05.315Z,6.76
2022-11-12T20:02:53.102Z,6.69
2022-11-12T20:05:40.040Z,6.67
2022-11-12T20:08:26.928Z,6.66
2022-11-12T20:11:16.097Z,6.64
2022-11-12T20:14:02.714Z,6.57
2022-11-12T20:16:51.479Z,6.53
2022-11-12T20:19:41.707Z,6.50
2022-11-12T20:22:32.350Z,6.47
2022-11-12T20:25:19.686Z,6.42
2022-11-12T20:28:07.839Z,6.42
2022-11-12T20:31:03.339Z,6.43
2022-11-12T20:33:51.570Z,6.42
2022-11-12T20:36:39.257Z,6.39
2022-11-12T20:39:27.261Z,6.32
2022-11-12T20:42:13.637Z,6.35
2022-11-12T20:45:00.031Z,6.35
2022-11-12T20:47:47.112Z,6.30
2022-11-12T20:50:33.552Z,6.25
2022-11-12T20:53:20.545Z,6.26
2022-11-12T20:56:11.825Z,6.21
2022-11-12T20:58:59.925Z,6.19
2022-11-12T21:01:46.281Z,6.14
2022-11-12T21:04:33.194Z,6.15
2022-11-12T21:07:21.783Z,6.14
2022-11-12T21:10:11.401Z,6.08
2022-11-12T21:13:01.783Z,6.05
2022-11-12T21:15:49.611Z,6.02
2022-11-12T21:18:37.957Z,6.00
2022-11-12T21:21:28.369Z,5.98
2022-11-12T21:24:17.466Z,5.95
2022-11-12T21:27:04.035Z,5.95
2022-11-12T21:29:52.054Z,6.01
2022-11-12T21:32:41.689Z,5.94
2022-11-12T21:35:29.658Z,5.93
2022-11-12T21:38:16.142Z,5.94
2022-11-12T21:41:11.816Z,5.91
2022-11-12T21:43:58.770Z,5.94
2022-11-12T21:46:46.347Z,5.93
2022-11-12T21:49:54.975Z,5.89
2022-11-12T21:52:42.261Z,5.86
2022-11-12T21:55:28.877Z,5.81
2022-11-12T21:58:15.042Z,5.83
2022-11-12T22:01:19.861Z,5.84
2022-11-12T22:04:07.707Z,5.77
2022-11-12T22:06:53.993Z,5.75
2022-11-12T22:09:40.759Z,5.71
2022-11-12T22:12:27.167Z,5.69
2022-11-12T22:15:17.787Z,5.66
2022-11-12T22:18:06.826Z,5.73
2022-11-12T22:21:06.904Z,5.70
2022-11-12T22:23:54.999Z,5.67
2022-11-12T22:26:41.757Z,5.69
2022-11-12T22:29:28.847Z,5.66
2022-11-12T22:32:17.049Z,5.63
2022-11-12T22:35:03.965Z,5.60
2022-11-12T22:37:50.594Z,5.62
2022-11-12T22:40:40.178Z,5.59
2022-11-12T22:43:26.751Z,5.57
2022-11-12T22:46:21.743Z,5.49
2022-11-12T22:49:11.255Z,5.53
2022-11-12T22:51:57.573Z,5.53
2022-11-12T22:54:44.536Z,5.50
2022-11-12T22:57:31.686Z,5.47
2022-11-12T23:00:28.072Z,5.50
2022-11-12T23:03:14.499Z,5.47
2022-11-12T23:06:03.291Z,5.47
2022-11-12T23:08:51.896Z,5.45
2022-11-12T23:11:38.757Z,5.45
2022-11-12T23:14:25.106Z,5.42
2022-11-12T23:17:11.274Z,5.40
2022-11-12T23:19:57.785Z,5.42
2022-11-12T23:22:44.300Z,5.36
2022-11-12T23:25:33.801Z,5.40
2022-11-12T23:28:21.694Z,5.40
2022-11-12T23:31:34.717Z,5.35
2022-11-12T23:34:21.365Z,5.38
2022-11-12T23:37:07.662Z,5.38
2022-11-12T23:39:54.513Z,5.38
2022-11-12T23:42:40.970Z,5.34
2022-11-12T23:45:27.574Z,5.35
2022-11-12T23:48:13.986Z,5.34
2022-11-12T23:51:03.810Z,5.28
2022-11-12T23:53:50.358Z,5.24
2022-11-12T23:56:36.709Z,5.21
2022-11-12T23:59:23.252Z,5.18
